createdAt,value
2018-04-27T00:01:48.534Z,99.90
2018-04-27T00:04:17.658Z,99.90
2018-04-27T00:06:51.683Z,99.90
2018-04-27T00:09:20.719Z,99.90
2018-04-27T00:11:50.571Z,99.90
2018-04-27T00:14:20.398Z,99.90
2018-04-27T00:16:50.245Z,99.90
2018-04-27T00:19:19.291Z,99.90
2018-04-27T00:21:49.136Z,99.90
2018-04-27T00:24:18.171Z,99.90
2018-04-27T00:26:47.325Z,99.90
2018-04-27T00:29:16.411Z,99.90
2018-04-27T00:31:45.469Z,99.90
2018-04-27T00:34:15.291Z,99.90
2018-04-27T00:36:45.311Z,99.90
2018-04-27T00:39:15.153Z,99.90
2018-04-27T00:41:46.438Z,99.90
2018-04-27T00:44:15.447Z,99.90
2018-04-27T00:46:44.476Z,99.90
2018-04-27T00:49:13.515Z,99.90
2018-04-27T00:51:42.563Z,99.90
2018-04-27T00:54:12.362Z,99.90
2018-04-27T00:56:42.177Z,99.90
2018-04-27T00:59:11.968Z,99.90
2018-04-27T01:01:41.777Z,99.90
2018-04-27T01:04:10.869Z,99.90
2018-04-27T01:06:39.935Z,99.90
2018-04-27T01:09:09.098Z,99.90
2018-04-27T01:11:38.927Z,99.90
2018-04-27T01:14:07.982Z,99.90
2018-04-27T01:16:37.059Z,99.90
2018-04-27T01:19:06.308Z,99.90
2018-04-27T01:21:36.142Z,99.90
2018-04-27T01:24:05.218Z,99.90
2018-04-27T01:26:34.315Z,99.90
2018-04-27T01:29:03.442Z,99.90
2018-04-27T01:31:32.527Z,99.90
2018-04-27T01:34:01.611Z,99.90
2018-04-27T01:36:30.639Z,99.90
2018-04-27T01:39:00.806Z,99.90
2018-04-27T01:41:29.837Z,99.90
2018-04-27T01:43:58.873Z,99.90
2018-04-27T01:46:28.708Z,99.90
2018-04-27T01:48:58.002Z,99.90
2018-04-27T01:51:27.826Z,99.90
2018-04-27T01:53:56.843Z,99.90
2018-04-27T01:56:25.850Z,99.90
2018-04-27T01:58:54.895Z,99.90
2018-04-27T02:01:24.679Z,99.90
2018-04-27T02:03:53.725Z,99.90
2018-04-27T02:06:22.982Z,99.90
2018-04-27T02:08:51.966Z,99.90
2018-04-27T02:11:24.315Z,99.90
2018-04-27T02:13:53.327Z,99.90
2018-04-27T02:16:22.353Z,99.90
2018-04-27T02:18:52.241Z,99.90
2018-04-27T02:21:21.325Z,99.90
2018-04-27T02:23:50.349Z,99.90
2018-04-27T02:26:20.133Z,99.90
2018-04-27T02:28:49.169Z,99.90
2018-04-27T02:31:18.201Z,99.90
2018-04-27T02:33:47.239Z,99.90
2018-04-27T02:36:17.026Z,99.90
2018-04-27T02:38:46.036Z,99.90
2018-04-27T02:41:19.173Z,99.90
2018-04-27T02:43:48.227Z,99.90
2018-04-27T02:46:18.005Z,99.90
2018-04-27T02:48:47.018Z,99.90
2018-04-27T02:51:16.075Z,99.90
2018-04-27T02:53:45.145Z,99.90
2018-04-27T02:56:17.715Z,99.90
2018-04-27T02:58:46.980Z,99.90
2018-04-27T03:01:24.242Z,99.90
2018-04-27T03:03:53.272Z,99.90
2018-04-27T03:06:23.062Z,99.90
2018-04-27T03:08:52.125Z,99.90
2018-04-27T03:11:21.131Z,99.90
2018-04-27T03:13:50.155Z,99.90
2018-04-27T03:16:19.278Z,99.90
2018-04-27T03:18:49.046Z,99.90
2018-04-27T03:21:18.043Z,99.90
2018-04-27T03:23:47.164Z,99.90
2018-04-27T03:26:16.105Z,99.90
2018-04-27T03:28:45.127Z,99.90
2018-04-27T03:31:14.138Z,99.90
2018-04-27T03:33:43.891Z,99.90
2018-04-27T03:36:12.870Z,99.90
2018-04-27T03:38:41.890Z,99.90
2018-04-27T03:41:10.890Z,99.90
2018-04-27T03:43:40.679Z,99.90
2018-04-27T03:46:10.515Z,99.90
2018-04-27T03:48:39.505Z,99.90
2018-04-27T03:51:08.595Z,99.90
2018-04-27T03:53:38.509Z,99.90
2018-04-27T03:56:07.558Z,99.90
2018-04-27T03:58:37.481Z,99.90
2018-04-27T04:03:22.350Z,99.90
2018-04-27T04:05:52.144Z,99.90
2018-04-27T04:08:22.981Z,99.90
2018-04-27T04:10:53.021Z,99.90
2018-04-27T04:13:22.808Z,99.90
2018-04-27T04:15:52.108Z,99.90
2018-04-27T04:18:21.941Z,99.90
2018-04-27T04:20:51.715Z,99.90
2018-04-27T04:23:20.810Z,99.90
2018-04-27T04:25:49.841Z,99.90
2018-04-27T04:28:19.642Z,99.90
2018-04-27T04:30:49.469Z,99.90
2018-04-27T04:33:19.249Z,99.90
2018-04-27T04:35:48.563Z,99.90
2018-04-27T04:38:18.470Z,99.90
2018-04-27T04:44:19.021Z,99.90
2018-04-27T04:46:48.129Z,99.90
2018-04-27T04:49:18.189Z,99.90
2018-04-27T04:51:48.066Z,99.90
2018-04-27T04:54:17.883Z,99.90
2018-04-27T04:56:47.928Z,99.90
2018-04-27T04:59:16.989Z,99.90
2018-04-27T05:01:46.837Z,99.90
2018-04-27T05:04:16.421Z,99.90
2018-04-27T05:06:48.618Z,99.90
2018-04-27T05:09:17.643Z,99.90
2018-04-27T05:11:48.293Z,99.90
2018-04-27T05:14:18.150Z,99.90
2018-04-27T05:16:49.415Z,99.90
2018-04-27T05:19:18.643Z,99.90
2018-04-27T05:21:47.687Z,99.90
2018-04-27T05:24:16.748Z,99.90
2018-04-27T05:26:45.857Z,99.90
2018-04-27T05:29:14.999Z,99.90
2018-04-27T05:31:44.148Z,99.90
2018-04-27T05:34:13.390Z,99.90
2018-04-27T05:36:50.799Z,99.90
2018-04-27T05:39:20.127Z,99.90
2018-04-27T05:41:50.205Z,99.90
2018-04-27T05:44:19.440Z,99.90
2018-04-27T05:46:49.472Z,99.90
2018-04-27T05:49:18.725Z,99.90
2018-04-27T05:51:51.452Z,99.90
2018-04-27T05:54:20.653Z,99.90
2018-04-27T05:56:50.408Z,99.90
2018-04-27T05:59:19.642Z,99.90
2018-04-27T06:01:49.602Z,99.90
2018-04-27T06:04:18.861Z,99.90
2018-04-27T06:08:08.217Z,99.90
2018-04-27T06:10:37.348Z,99.90
2018-04-27T06:13:12.771Z,99.90
2018-04-27T06:15:41.980Z,99.90
2018-04-27T06:18:12.483Z,99.90
2018-04-27T06:20:42.862Z,99.90
2018-04-27T06:23:12.053Z,99.90
2018-04-27T06:25:42.235Z,99.90
2018-04-27T06:28:12.829Z,99.90
2018-04-27T06:30:42.111Z,99.90
2018-04-27T06:33:12.364Z,99.90
2018-04-27T06:35:43.548Z,99.90
2018-04-27T06:38:12.817Z,99.90
2018-04-27T06:40:42.019Z,99.90
2018-04-27T06:43:12.381Z,99.90
2018-04-27T06:45:43.244Z,99.90
2018-04-27T06:48:12.348Z,99.90
2018-04-27T06:50:41.704Z,99.90
2018-04-27T06:53:11.858Z,99.90
2018-04-27T06:55:41.474Z,99.90
2018-04-27T06:58:10.950Z,99.90
2018-04-27T07:00:40.273Z,99.90
2018-04-27T07:03:09.840Z,99.90
2018-04-27T07:05:41.261Z,99.90
2018-04-27T07:08:10.598Z,99.90
2018-04-27T07:10:39.802Z,99.90
2018-04-27T07:13:09.125Z,99.90
2018-04-27T07:15:39.187Z,99.90
2018-04-27T07:18:10.128Z,99.90
2018-04-27T07:20:40.634Z,99.90
2018-04-27T07:23:09.848Z,99.90
2018-04-27T07:25:39.054Z,99.90
2018-04-27T07:28:11.555Z,99.90
2018-04-27T07:30:41.452Z,99.90
2018-04-27T07:33:11.438Z,99.90
2018-04-27T07:35:40.782Z,99.90
2018-04-27T07:38:10.441Z,99.90
2018-04-27T07:40:39.796Z,99.90
2018-04-27T07:43:09.120Z,99.90
2018-04-27T07:45:39.358Z,99.90
2018-04-27T07:48:08.662Z,99.90
2018-04-27T07:50:38.105Z,99.90
2018-04-27T07:53:07.443Z,99.90
2018-04-27T07:55:36.734Z,99.90
2018-04-27T07:58:05.948Z,99.90
2018-04-27T08:00:35.246Z,99.90
2018-04-27T08:03:04.544Z,99.90
2018-04-27T08:05:34.562Z,99.90
2018-04-27T08:08:04.729Z,99.90
2018-04-27T08:10:34.093Z,99.90
2018-04-27T08:13:03.378Z,99.90
2018-04-27T08:15:32.792Z,99.90
2018-04-27T08:18:02.055Z,99.00
2018-04-27T08:20:32.923Z,97.50
2018-04-27T08:23:03.142Z,97.40
2018-04-27T08:25:33.771Z,95.90
2018-04-27T08:28:04.883Z,91.30
2018-04-27T08:30:34.193Z,91.30
2018-04-27T08:33:04.701Z,89.80
2018-04-27T08:35:34.808Z,85.70
2018-04-27T08:38:03.961Z,85.60
2018-04-27T08:40:34.186Z,84.00
2018-04-27T08:43:03.881Z,84.00
2018-04-27T08:45:33.402Z,80.70
2018-04-27T08:48:03.355Z,89.50
2018-04-27T08:50:33.417Z,86.50
2018-04-27T08:53:02.697Z,86.50
2018-04-27T08:55:32.723Z,83.60
2018-04-27T08:58:03.136Z,82.90
2018-04-27T09:00:32.546Z,82.80
2018-04-27T09:03:02.050Z,78.70
2018-04-27T09:05:31.274Z,83.00
2018-04-27T09:08:00.486Z,81.40
2018-04-27T09:10:29.855Z,84.30
2018-04-27T09:12:59.818Z,81.60
2018-04-27T09:15:29.080Z,81.40
2018-04-27T09:17:59.173Z,83.30
2018-04-27T09:20:28.618Z,83.30
2018-04-27T09:22:58.110Z,84.40
2018-04-27T09:25:27.406Z,82.90
2018-04-27T09:27:57.759Z,80.10
2018-04-27T09:30:27.899Z,81.90
2018-04-27T09:32:57.176Z,84.90
2018-04-27T09:35:26.456Z,86.70
2018-04-27T09:37:55.543Z,87.80
2018-04-27T09:40:25.483Z,82.90
2018-04-27T09:42:55.398Z,82.90
2018-04-27T09:45:25.577Z,86.80
2018-04-27T09:47:55.609Z,83.30
2018-04-27T09:50:25.630Z,88.80
2018-04-27T09:52:55.554Z,88.40
2018-04-27T09:55:25.387Z,88.50
2018-04-27T09:57:55.600Z,88.40
2018-04-27T10:00:25.053Z,88.40
2018-04-27T10:02:54.403Z,85.00
2018-04-27T10:05:24.385Z,90.80
2018-04-27T10:07:53.601Z,90.80
2018-04-27T10:10:23.011Z,91.60
2018-04-27T10:12:52.247Z,90.40
2018-04-27T10:15:21.669Z,88.60
2018-04-27T10:17:50.922Z,89.60
2018-04-27T10:20:20.471Z,85.10
2018-04-27T10:22:54.095Z,86.00
2018-04-27T10:25:24.364Z,86.10
2018-04-27T10:27:53.715Z,86.10
2018-04-27T10:30:24.170Z,87.00
2018-04-27T10:32:53.642Z,86.90
2018-04-27T10:35:23.726Z,85.10
2018-04-27T10:37:57.435Z,85.10
2018-04-27T10:40:27.101Z,84.60
2018-04-27T10:42:56.873Z,86.60
2018-04-27T10:45:26.514Z,90.30
2018-04-27T10:47:56.136Z,85.60
2018-04-27T10:50:25.511Z,86.00
2018-04-27T10:52:56.681Z,87.40
2018-04-27T10:55:26.057Z,87.40
2018-04-27T10:57:58.988Z,90.50
2018-04-27T11:00:40.527Z,90.50
2018-04-27T11:03:18.035Z,86.30
2018-04-27T11:05:52.509Z,85.60
2018-04-27T11:08:24.293Z,83.20
2018-04-27T11:11:08.261Z,75.00
2018-04-27T11:19:09.765Z,82.20
2018-04-27T11:21:42.866Z,84.30
2018-04-27T11:24:19.707Z,84.20
2018-04-27T11:26:57.919Z,82.30
2018-04-27T11:29:29.258Z,79.40
2018-04-27T11:31:59.949Z,79.30
2018-04-27T11:34:32.664Z,80.80
2018-04-27T11:37:02.050Z,80.40
2018-04-27T11:39:31.476Z,83.50
2018-04-27T11:42:07.547Z,82.70
2018-04-27T11:44:37.856Z,82.70
2018-04-27T11:47:08.526Z,84.70
2018-04-27T11:49:41.157Z,84.60
2018-04-27T11:52:12.118Z,82.60
2018-04-27T11:54:51.143Z,82.00
2018-04-27T11:57:22.464Z,81.80
2018-04-27T11:59:54.161Z,81.70
2018-04-27T12:02:23.687Z,80.00
2018-04-27T12:04:54.829Z,81.20
2018-04-27T12:07:25.832Z,83.20
2018-04-27T12:09:55.453Z,83.20
2018-04-27T12:12:28.383Z,81.90
2018-04-27T12:15:02.670Z,81.90
2018-04-27T12:18:17.117Z,81.70
2018-04-27T12:20:48.362Z,81.00
2018-04-27T12:23:18.668Z,84.10
2018-04-27T12:25:50.362Z,84.10
2018-04-27T12:28:19.825Z,85.50
2018-04-27T12:30:49.635Z,84.10
2018-04-27T12:33:19.177Z,85.60
2018-04-27T12:35:49.276Z,81.60
2018-04-27T12:38:19.172Z,83.10
2018-04-27T12:40:50.879Z,84.30
2018-04-27T12:43:20.637Z,84.30
2018-04-27T12:45:51.113Z,82.80
2018-04-27T12:48:20.708Z,82.70
2018-04-27T12:50:50.296Z,83.50
2018-04-27T12:53:20.162Z,82.00
2018-04-27T12:55:51.518Z,85.60
2018-04-27T12:58:21.939Z,85.40
2018-04-27T13:00:52.443Z,86.30
2018-04-27T13:03:22.777Z,83.50
2018-04-27T13:05:52.380Z,83.40
2018-04-27T13:08:22.179Z,83.40
2018-04-27T13:10:52.399Z,85.30
2018-04-27T13:13:22.948Z,85.30
2018-04-27T13:15:52.540Z,87.10
2018-04-27T13:18:22.053Z,83.80
2018-04-27T13:20:52.144Z,85.90
2018-04-27T13:23:23.155Z,86.90
2018-04-27T13:25:52.364Z,87.50
2018-04-27T13:28:22.999Z,88.70
2018-04-27T13:30:53.145Z,91.00
2018-04-27T13:33:23.107Z,88.80
2018-04-27T13:35:52.338Z,88.90
2018-04-27T13:38:23.357Z,90.20
2018-04-27T13:40:54.297Z,86.70
2018-04-27T13:43:23.636Z,86.70
2018-04-27T13:45:53.534Z,86.20
2018-04-27T13:48:23.085Z,85.60
2018-04-27T13:50:53.737Z,88.50
2018-04-27T13:53:24.346Z,85.80
2018-04-27T13:55:54.189Z,85.80
2018-04-27T13:58:23.886Z,87.90
2018-04-27T14:00:54.065Z,88.00
2018-04-27T14:03:24.978Z,86.00
2018-04-27T14:05:54.582Z,86.00
2018-04-27T14:08:24.409Z,84.60
2018-04-27T14:10:54.686Z,84.80
2018-04-27T14:13:24.408Z,84.80
2018-04-27T14:15:55.973Z,83.70
2018-04-27T14:18:26.106Z,83.60
2018-04-27T14:20:56.222Z,83.40
2018-04-27T14:23:35.039Z,83.70
2018-04-27T14:26:05.020Z,86.00
2018-04-27T14:28:36.260Z,86.00
2018-04-27T14:31:06.577Z,83.60
2018-04-27T14:33:36.042Z,83.80
2018-04-27T14:36:19.569Z,87.50
2018-04-27T14:38:48.923Z,87.20
2018-04-27T14:41:19.374Z,88.60
2018-04-27T14:43:50.865Z,84.20
2018-04-27T14:46:22.686Z,82.70
2018-04-27T14:48:52.861Z,82.60
2018-04-27T14:51:24.439Z,83.70
2018-04-27T14:53:54.770Z,82.90
2018-04-27T14:56:24.959Z,86.00
2018-04-27T14:58:55.131Z,85.20
2018-04-27T15:01:25.466Z,83.50
2018-04-27T15:03:58.159Z,84.70
2018-04-27T15:06:29.933Z,83.50
2018-04-27T15:08:59.222Z,83.60
2018-04-27T15:11:33.499Z,85.40
2018-04-27T15:14:18.323Z,83.90
2018-04-27T15:16:47.795Z,83.80
2018-04-27T15:19:18.098Z,85.60
2018-04-27T15:21:50.527Z,85.50
2018-04-27T15:24:21.977Z,82.70
2018-04-27T15:26:53.717Z,82.60
2018-04-27T15:29:24.008Z,85.30
2018-04-27T15:31:53.419Z,80.10
2018-04-27T15:34:23.489Z,82.60
2018-04-27T15:36:54.228Z,81.10
2018-04-27T15:39:24.364Z,83.40
2018-04-27T15:41:55.107Z,81.40
2018-04-27T15:44:24.657Z,81.50
2018-04-27T15:46:54.547Z,80.80
2018-04-27T15:49:24.890Z,83.20
2018-04-27T15:51:54.719Z,83.00
2018-04-27T15:54:24.882Z,82.90
2018-04-27T15:56:55.320Z,82.90
2018-04-27T15:59:24.520Z,85.30
2018-04-27T16:01:54.300Z,84.40
2018-04-27T16:04:24.090Z,83.50
2018-04-27T16:06:54.171Z,87.00
2018-04-27T16:09:23.776Z,86.20
2018-04-27T16:11:53.908Z,87.80
2018-04-27T16:14:24.179Z,87.20
2018-04-27T16:16:54.048Z,87.10
2018-04-27T16:19:24.895Z,90.00
2018-04-27T16:21:56.425Z,83.40
2018-04-27T16:24:31.078Z,83.10
2018-04-27T16:27:07.608Z,86.40
2018-04-27T16:29:38.233Z,86.90
2018-04-27T16:32:13.718Z,87.00
2018-04-27T16:34:43.316Z,86.10
2018-04-27T16:37:13.492Z,84.30
2018-04-27T16:39:43.627Z,84.80
2018-04-27T16:42:13.089Z,84.80
2018-04-27T16:44:43.946Z,84.20
2018-04-27T16:47:13.740Z,84.40
2018-04-27T16:49:44.038Z,85.70
2018-04-27T16:52:14.055Z,82.70
2018-04-27T16:54:43.393Z,82.50
2018-04-27T16:57:13.906Z,84.10
2018-04-27T16:59:43.380Z,83.30
2018-04-27T17:02:13.191Z,84.40
2018-04-27T17:04:44.243Z,84.20
2018-04-27T17:07:15.825Z,84.80
2018-04-27T17:09:45.615Z,84.70
2018-04-27T17:12:17.181Z,85.70
2018-04-27T17:14:46.905Z,85.60
2018-04-27T17:17:31.048Z,85.10
2018-04-27T17:20:00.352Z,87.90
2018-04-27T17:22:29.674Z,85.00
2018-04-27T17:25:03.480Z,85.90
2018-04-27T17:27:34.005Z,85.10
2018-04-27T17:30:04.400Z,85.10
2018-04-27T17:32:33.921Z,85.90
2018-04-27T17:35:14.834Z,87.00
2018-04-27T17:37:47.926Z,85.70
2018-04-27T17:40:25.611Z,85.80
2018-04-27T17:42:56.916Z,88.70
2018-04-27T17:45:26.391Z,86.90
2018-04-27T17:47:55.920Z,87.80
2018-04-27T17:50:25.714Z,90.00
2018-04-27T17:52:55.915Z,89.30
2018-04-27T17:55:25.173Z,89.90
2018-04-27T17:57:54.292Z,90.00
2018-04-27T18:00:26.154Z,89.80
2018-04-27T18:02:55.503Z,90.50
2018-04-27T18:05:25.925Z,90.70
2018-04-27T18:07:55.212Z,91.00
2018-04-27T18:10:25.518Z,91.00
2018-04-27T18:12:54.657Z,91.00
2018-04-27T18:15:24.708Z,91.60
2018-04-27T18:17:54.801Z,91.30
2018-04-27T18:20:25.505Z,92.90
2018-04-27T18:22:54.785Z,92.90
2018-04-27T18:25:26.549Z,92.70
2018-04-27T18:27:56.845Z,93.80
2018-04-27T18:30:26.266Z,94.60
2018-04-27T18:32:56.242Z,94.60
2018-04-27T18:35:26.328Z,94.60
2018-04-27T18:37:56.448Z,94.20
2018-04-27T18:40:28.181Z,94.40
2018-04-27T18:42:57.723Z,94.40
2018-04-27T18:46:55.330Z,94.50
2018-04-27T18:49:24.524Z,95.10
2018-04-27T18:53:41.255Z,95.80
2018-04-27T18:56:12.158Z,96.70
2018-04-27T18:58:52.013Z,97.20
2018-04-27T19:01:21.537Z,97.90
2018-04-27T19:03:51.318Z,98.40
2018-04-27T19:06:21.673Z,98.90
2018-04-27T19:08:51.230Z,99.80
2018-04-27T19:11:22.694Z,99.90
2018-04-27T19:13:54.510Z,99.90
2018-04-27T19:16:24.057Z,99.90
2018-04-27T19:18:58.249Z,99.90
2018-04-27T19:21:27.714Z,99.90
2018-04-27T19:23:57.057Z,99.90
2018-04-27T19:26:29.146Z,99.90
2018-04-27T19:28:58.421Z,99.90
2018-04-27T19:31:28.004Z,99.90
2018-04-27T19:33:57.354Z,99.90
2018-04-27T19:36:26.591Z,99.90
2018-04-27T19:38:56.108Z,99.90
2018-04-27T19:41:25.309Z,99.90
2018-04-27T19:43:54.625Z,99.90
2018-04-27T19:46:23.941Z,99.90
2018-04-27T19:48:54.275Z,99.90
2018-04-27T19:51:24.882Z,99.90
2018-04-27T19:53:55.713Z,99.90
2018-04-27T19:56:27.734Z,99.90
2018-04-27T19:58:57.110Z,99.90
2018-04-27T20:01:28.876Z,99.90
2018-04-27T20:03:58.458Z,99.90
2018-04-27T20:06:28.553Z,99.90
2018-04-27T20:08:58.208Z,99.90
2018-04-27T20:11:27.615Z,99.90
2018-04-27T20:13:58.540Z,99.90
2018-04-27T20:16:42.844Z,99.90
2018-04-27T20:19:12.905Z,99.90
2018-04-27T20:21:42.821Z,99.90
2018-04-27T20:24:12.824Z,99.90
2018-04-27T20:26:42.261Z,99.90
2018-04-27T20:29:11.803Z,99.90
2018-04-27T20:31:41.120Z,99.90
2018-04-27T20:34:10.435Z,99.90
2018-04-27T20:36:39.726Z,99.90
2018-04-27T20:39:09.857Z,99.90
2018-04-27T20:41:39.806Z,99.90
2018-04-27T20:44:08.999Z,99.90
2018-04-27T20:46:39.487Z,99.90
2018-04-27T20:49:08.720Z,99.90
2018-04-27T20:51:38.198Z,99.90
2018-04-27T20:54:14.143Z,99.90
2018-04-27T20:56:43.966Z,99.90
2018-04-27T20:59:14.143Z,99.90
2018-04-27T21:01:43.651Z,99.90
2018-04-27T21:04:13.020Z,99.90
2018-04-27T21:06:42.863Z,99.90
2018-04-27T21:09:12.540Z,99.90
2018-04-27T21:11:42.666Z,99.90
2018-04-27T21:14:12.030Z,99.90
2018-04-27T21:16:41.442Z,99.90
2018-04-27T21:19:10.719Z,99.90
2018-04-27T21:21:40.123Z,99.90
2018-04-27T21:24:09.524Z,99.90
2018-04-27T21:26:42.444Z,99.90
2018-04-27T21:29:15.008Z,99.90
2018-04-27T21:31:45.029Z,99.90
2018-04-27T21:34:15.095Z,99.90
2018-04-27T21:36:46.459Z,99.90
2018-04-27T21:39:15.799Z,99.90
2018-04-27T21:41:45.802Z,99.90
2018-04-27T21:44:15.775Z,99.90
2018-04-27T21:46:45.273Z,99.90
2018-04-27T21:49:14.913Z,99.90
2018-04-27T21:51:44.214Z,99.90
2018-04-27T21:54:13.877Z,99.90
2018-04-27T21:56:43.129Z,99.90
2018-04-27T21:59:18.174Z,99.90
2018-04-27T22:01:47.405Z,99.90
2018-04-27T22:04:17.414Z,99.90
2018-04-27T22:06:47.438Z,99.90
2018-04-27T22:09:16.655Z,99.90
2018-04-27T22:11:47.344Z,99.90
2018-04-27T22:14:17.458Z,99.90
2018-04-27T22:16:46.713Z,99.90
2018-04-27T22:19:16.716Z,99.90
2018-04-27T22:21:46.333Z,99.90
2018-04-27T22:24:15.671Z,99.90
2018-04-27T22:26:45.148Z,99.90
2018-04-27T22:29:19.064Z,99.90
2018-04-27T22:31:54.970Z,99.90
2018-04-27T22:34:25.772Z,99.90
2018-04-27T22:36:55.091Z,99.90
2018-04-27T22:39:31.051Z,99.90
2018-04-27T22:42:09.526Z,99.90
2018-04-27T22:44:39.798Z,99.90
2018-04-27T22:47:09.792Z,99.90
2018-04-27T22:49:39.134Z,99.90
2018-04-27T22:52:08.859Z,99.90
2018-04-27T22:54:38.212Z,99.90
2018-04-27T22:57:10.015Z,99.90
2018-04-27T22:59:40.323Z,99.90
2018-04-27T23:02:10.030Z,99.90
2018-04-27T23:04:40.154Z,99.90
2018-04-27T23:07:09.561Z,99.90
2018-04-27T23:09:38.825Z,99.90
2018-04-27T23:12:08.312Z,99.90
2018-04-27T23:14:37.753Z,99.90
2018-04-27T23:17:06.966Z,99.90
2018-04-27T23:19:36.194Z,99.90
2018-04-27T23:22:05.407Z,99.90
2018-04-27T23:24:35.411Z,99.90
2018-04-27T23:27:05.477Z,99.90
2018-04-27T23:29:35.449Z,99.90
2018-04-27T23:32:04.584Z,99.90
2018-04-27T23:34:34.654Z,99.90
2018-04-27T23:37:04.814Z,99.90
2018-04-27T23:39:34.094Z,99.90
2018-04-27T23:42:03.327Z,99.90
2018-04-27T23:44:33.313Z,99.90
2018-04-27T23:47:02.609Z,99.90
2018-04-27T23:49:31.770Z,99.90
2018-04-27T23:52:00.961Z,99.90
2018-04-27T23:54:30.135Z,99.90
2018-04-27T23:57:00.258Z,99.90
2018-04-27T23:59:30.356Z,99.90
